Oneida, Nebraska
Current Conditions -  °F | °C
As of 11:55 AM on Friday 21 Nov 2014 (Local Time) from KHDE Reporting Station
Scattered Clouds Scattered Clouds  
Wind Chill: 34°   Ceiling: Unl
Heat Index: 41°   Visibility: 10mi
Dew Point: 26°   Wind: 12mph
Humidity: 54%   Direction: 200°SSW
Pressure: 30.04"   Gusts: NA
Location:  40.3942°N, 99.1223°W
Report Text: KHDE 211755Z AUTO 20010KT 10SM SCT120 05/M04 A3004 RMK AO2 T00501036 10050 21051
Loading
Personal Weather Stations






























Interactive Weather Map New forecast layout! Learn more

10-Day Weather Forecast

Advertisements
Track Severe Weather on mobile